Tuesday, January 15, 2019, 6:30 PM EST
Back to Local

KGNR, Greenville

Location: Greenville, ME, United States Lat: 45.467
Local Time: 6:30 PM EST (23:30 GMT) Lon: -69.583
Time Zone: US/Eastern Elev: 1400 ft

Show me the last for .
Show Decoded

2019-01-15 17:56 METAR KGNR 152256Z AUTO 32005KT M08/M13 A2993 RMK AO1 SLP164 T10781128 =
2019-01-15 16:56 METAR KGNR 152156Z AUTO 31004KT M07/M12 A2993 RMK AO1 SLP162 T10721122 =
2019-01-15 15:56 METAR KGNR 152056Z AUTO 33003KT M07/M12 A2992 RMK AO1 SLP160 T10721122 53005 =
2019-01-15 14:56 METAR KGNR 151956Z AUTO 32006KT M07/M12 A2991 RMK AO1 SLP158 T10671122 =
2019-01-15 13:56 METAR KGNR 151856Z AUTO 34009KT M07/M13 A2990 RMK AO1 SLP154 T10671128 =
2019-01-15 12:56 METAR KGNR 151756Z AUTO 31008KT M07/M13 A2990 RMK AO1 SLP154 T10671128 11067
                 21106 58013 =
2019-01-15 11:56 METAR KGNR 151656Z AUTO 33007KT M08/M13 A2992 RMK AO1 SLP160 T10781133 =
2019-01-15 10:56 METAR KGNR 151556Z AUTO 31011KT M08/M13 A2993 RMK AO1 SLP166 T10831133 =
2019-01-15 09:56 METAR KGNR 151456Z AUTO 34007KT M10/M14 A2994 RMK AO1 SLP170 T11001139 51010 =
2019-01-15 08:56 METAR KGNR 151356Z AUTO 33009KT M11/M14 A2994 RMK AO1 SLP168 T11061139 =
2019-01-15 07:56 METAR KGNR 151256Z AUTO 33008KT M11/M14 A2992 RMK AO1 SLP163 T11061139 =
2019-01-15 06:56 METAR KGNR 151156Z AUTO 34006KT M11/M14 A2991 RMK AO1 SLP160 T11061144 11106
                 21117 53006 =
2019-01-15 05:56 METAR KGNR 151056Z AUTO 35005KT M11/M14 A2990 RMK AO1 SLP156 T11061144 =
2019-01-15 04:56 METAR KGNR 150956Z AUTO 33009KT M11/M15 A2989 RMK AO1 SLP152 T11061150 =
2019-01-15 03:56 METAR KGNR 150856Z AUTO 32011KT M11/M16 A2990 RMK AO1 SLP153 T11061156 57003 =
2019-01-15 02:56 METAR KGNR 150756Z AUTO 35008KT 310V020 M11/M17 A2990 RMK AO1 SLP155 T11111167 =
2019-01-15 01:56 METAR KGNR 150656Z AUTO 33011KT M12/M17 A2990 RMK AO1 SLP153 T11171172 =
2019-01-15 00:56 METAR KGNR 150556Z AUTO 34011KT M12/M17 A2990 RMK AO1 SLP156 T11171172 11094
                 21117 58017 =
2019-01-14 23:56 METAR KGNR 150456Z AUTO 34011KT M11/M18 A2992 RMK AO1 SLP162 T11111178 410781211
                 =
2019-01-14 22:56 METAR KGNR 150356Z AUTO 36007KT M11/M17 A2995 RMK AO1 SLP172 T11111167 =
2019-01-14 21:56 METAR KGNR 150256Z AUTO 36007KT M10/M17 A2995 RMK AO1 SLP177 T11001167 56010 =
2019-01-14 20:56 METAR KGNR 150156Z AUTO 02006KT M11/M16 A2996 RMK AO1 SLP180 T11061161 =
2019-01-14 19:56 METAR KGNR 150056Z AUTO 02006KT M10/M16 A2997 RMK AO1 SLP183 T11001161 =
2019-01-14 18:56 METAR KGNR 142356Z AUTO 36005KT M09/M16 A2999 RMK AO1 SLP191 T10941156 11078
                 21100 56010 =

Support USWX by starting your Amazon purchase here.